Time;durP1;ratioP1;P1;durP2;ratioP2;P2;SDS_P1;SDS_P2;PMS_P1;PMS_P2;Temp;Humidity;BMP_temperature;BMP_pressure;BME280_temperature;BME280_humidity;BME280_pressure;Samples;Min_cycle;Max_cycle;Signal;HPM_P1;HPM_P2
2021/08/03 00:02:08;;;;;;;7.43;4.68;;;;;;;13.36;81.01;101465.94;5116481;28;20092;-36
2021/08/03 00:04:40;;;;;;;5.95;4.60;;;;;;;13.32;81.13;101462.03;5116043;28;20467;-36
2021/08/03 00:07:08;;;;;;;5.15;4.53;;;;;;;13.30;80.90;101469.59;5116704;28;20080;-36
2021/08/03 00:09:34;;;;;;;5.97;4.60;;;;;;;13.24;81.27;101465.13;5116779;28;20015;-36
2021/08/03 00:12:00;;;;;;;;;;;;;;;13.49;79.32;101463.00;5116652;28;20494;-36
2021/08/03 00:14:26;;;;;;;7.50;4.78;;;;;;;13.20;80.89;101447.59;5116209;28;19907;-36
2021/08/03 00:16:53;;;;;;;8.70;4.85;;;;;;;13.14;81.34;101452.06;5116032;28;20019;-36
2021/08/03 00:19:22;;;;;;;8.27;4.40;;;;;;;13.09;81.28;101441.09;5115876;28;20044;-36
2021/08/03 00:21:48;;;;;;;9.88;4.45;;;;;;;13.30;81.03;101473.16;5115767;28;20231;-36
2021/08/03 00:24:16;;;;;;;6.38;4.72;;;;;;;13.35;80.71;101464.28;5115677;28;20051;-36
2021/08/03 00:26:42;;;;;;;5.82;4.22;;;;;;;13.35;81.21;101453.44;5115814;28;20102;-36
2021/08/03 00:29:08;;;;;;;6.40;5.13;;;;;;;13.32;80.56;101441.16;5116067;28;20406;-36
2021/08/03 00:31:34;;;;;;;7.95;4.40;;;;;;;13.43;80.61;101461.25;5116061;28;20147;-36
2021/08/03 00:34:00;;;;;;;8.82;5.05;;;;;;;13.39;80.13;101457.34;5115426;28;20040;-36
2021/08/03 00:36:29;;;;;;;7.82;3.97;;;;;;;13.41;80.25;101452.47;5115417;28;20020;-36
2021/08/03 00:38:55;;;;;;;7.60;4.80;;;;;;;13.46;80.20;101463.47;5115216;28;20073;-36
2021/08/03 00:41:26;;;;;;;;;;;;;;;13.61;79.01;101461.13;5115800;28;20051;-36
2021/08/03 00:43:51;;;;;;;6.60;3.88;;;;;;;13.47;80.01;101437.13;5115494;28;20003;-36
2021/08/03 00:46:17;;;;;;;8.97;4.80;;;;;;;13.46;80.10;101444.44;5115242;28;20051;-36
2021/08/03 00:48:42;;;;;;;7.43;4.37;;;;;;;13.54;81.13;101460.41;5115116;28;20760;-36
2021/08/03 00:51:07;;;;;;;7.13;5.40;;;;;;;13.47;80.66;101453.44;5115640;28;20294;-36
2021/08/03 00:53:33;;;;;;;6.60;4.63;;;;;;;13.36;80.72;101449.66;5115039;28;20016;-36
2021/08/03 00:56:01;;;;;;;6.78;4.50;;;;;;;13.42;80.98;101446.00;5116102;28;20382;-36
2021/08/03 00:58:27;;;;;;;6.60;4.60;;;;;;;13.47;81.25;101440.69;5115193;28;20340;-36
2021/08/03 01:00:56;;;;;;;6.75;4.30;;;;;;;13.48;81.18;101449.66;5115636;28;20027;-36
2021/08/03 01:03:22;;;;;;;7.88;4.65;;;;;;;13.44;81.61;101433.00;5115071;28;20359;-36
2021/08/03 01:06:20;;;;;;;5.80;4.65;;;;;;;13.46;81.84;101428.16;5115680;28;20126;-36
2021/08/03 01:08:58;;;;;;;5.90;4.50;;;;;;;13.48;81.23;101447.78;5115338;28;20030;-36
2021/08/03 01:11:36;;;;;;;6.75;4.50;;;;;;;13.47;81.80;101450.72;5115119;28;20024;-36
2021/08/03 01:14:14;;;;;;;6.07;4.53;;;;;;;13.43;82.56;101441.41;5114559;28;20023;-36
2021/08/03 01:16:58;;;;;;;7.75;5.20;;;;;;;13.42;82.29;101439.72;5115712;27;20066;-36
2021/08/03 01:19:42;;;;;;;7.40;4.75;;;;;;;13.44;81.88;101441.16;5114785;27;20027;-36
2021/08/03 01:22:34;;;;;;;7.32;4.75;;;;;;;13.39;81.60;101422.03;5114473;28;20024;-36
2021/08/03 01:25:10;;;;;;;5.80;4.82;;;;;;;13.47;81.80;101431.69;5115220;28;20019;-36
2021/08/03 01:28:07;;;;;;;8.90;4.90;;;;;;;13.53;81.19;101442.47;5115013;28;20085;-36
2021/08/03 01:30:34;;;;;;;5.93;4.90;;;;;;;13.43;82.66;101430.53;5115164;28;20194;-36
2021/08/03 01:33:02;;;;;;;7.20;4.35;;;;;;;13.36;81.60;101430.63;5114998;28;20027;-36
2021/08/03 01:35:28;;;;;;;6.43;4.40;;;;;;;13.46;81.61;101432.75;5114595;28;20027;-36
2021/08/03 01:37:58;;;;;;;5.85;4.70;;;;;;;13.53;81.76;101430.78;5115393;27;20035;-36
2021/08/03 01:40:25;;;;;;;8.52;4.78;;;;;;;13.42;81.70;101432.44;5114180;28;20055;-36
2021/08/03 01:42:51;;;;;;;9.13;5.07;;;;;;;13.37;81.97;101430.41;5114171;28;20031;-36
2021/08/03 01:45:18;;;;;;;6.22;4.78;;;;;;;13.43;82.10;101430.53;5115046;28;20023;-36
2021/08/03 01:47:43;;;;;;;8.43;4.68;;;;;;;13.45;82.99;101434.66;5112482;28;20040;-36
2021/08/03 01:50:10;;;;;;;7.20;4.72;;;;;;;13.45;82.14;101433.84;5114117;28;20435;-36
2021/08/03 01:52:37;;;;;;;7.18;4.90;;;;;;;13.43;82.58;101434.06;5114265;28;20027;-36
2021/08/03 01:55:03;;;;;;;8.75;5.03;;;;;;;13.38;82.22;101429.34;5114425;28;20069;-36
2021/08/03 01:57:30;;;;;;;8.45;4.88;;;;;;;13.47;82.80;101440.69;5114185;28;20058;-36
2021/08/03 01:59:57;;;;;;;6.43;5.28;;;;;;;13.51;82.98;101441.84;5112927;28;20106;-36
2021/08/03 02:02:23;;;;;;;7.18;4.93;;;;;;;13.43;82.55;101428.66;5114036;28;20020;-36
2021/08/03 02:04:48;;;;;;;6.60;5.22;;;;;;;13.56;82.46;101431.09;5114055;28;20023;-36
2021/08/03 02:07:17;;;;;;;6.82;5.22;;;;;;;13.51;82.88;101433.69;5114678;28;20042;-36
2021/08/03 02:09:44;;;;;;;9.07;5.38;;;;;;;13.37;82.93;101432.28;5114128;28;20054;-36
2021/08/03 02:12:10;;;;;;;7.22;5.07;;;;;;;13.33;83.37;101428.41;5113688;28;20028;-36
2021/08/03 02:14:37;;;;;;;8.10;5.40;;;;;;;13.27;83.40;101416.56;5114121;28;20023;-36
2021/08/03 02:17:02;;;;;;;10.77;5.15;;;;;;;13.42;83.38;101429.72;5113844;28;20029;-36
2021/08/03 02:19:28;;;;;;;7.63;5.40;;;;;;;13.35;82.85;101412.69;5113305;28;20417;-36
2021/08/03 02:21:54;;;;;;;6.05;4.93;;;;;;;13.45;83.74;101422.97;5114023;28;20048;-36
2021/08/03 02:24:19;;;;;;;6.93;5.20;;;;;;;13.54;83.32;101430.53;5113599;28;20030;-36
2021/08/03 02:26:45;;;;;;;7.90;4.55;;;;;;;13.40;82.87;101413.63;5114199;28;20457;-36
2021/08/03 02:29:10;;;;;;;10.05;5.93;;;;;;;13.48;83.38;101428.75;5113309;28;20035;-36
2021/08/03 02:31:41;;;;;;;7.90;5.43;;;;;;;13.46;83.56;101422.72;5113315;28;20466;-36
2021/08/03 02:34:13;;;;;;;6.97;5.20;;;;;;;13.38;83.70;101409.50;5113244;28;20464;-36
2021/08/03 02:36:49;;;;;;;7.03;5.20;;;;;;;13.47;83.81;101427.13;5113476;28;20020;-36
2021/08/03 02:39:17;;;;;;;6.07;4.60;;;;;;;13.47;83.41;101432.53;5113566;28;20448;-36
2021/08/03 02:41:43;;;;;;;6.18;5.00;;;;;;;13.47;83.54;101424.41;5113464;28;20254;-36
2021/08/03 02:44:11;;;;;;;9.13;5.88;;;;;;;13.43;83.52;101419.66;5113429;28;20070;-36
2021/08/03 02:46:39;;;;;;;9.18;5.20;;;;;;;13.45;83.40;101417.53;5113399;28;20194;-36
2021/08/03 02:49:07;;;;;;;6.25;4.63;;;;;;;13.50;83.81;101426.63;5113277;28;20117;-36
2021/08/03 02:51:39;;;;;;;7.07;5.03;;;;;;;13.39;83.55;101403.84;5113237;28;20040;-36
2021/08/03 02:54:35;;;;;;;8.60;5.13;;;;;;;13.52;83.52;101429.94;5113031;28;20031;-36
2021/08/03 02:57:04;;;;;;;8.80;5.50;;;;;;;13.59;83.38;101430.66;5113718;28;20020;-36
2021/08/03 02:59:34;;;;;;;6.20;4.85;;;;;;;13.49;83.03;101411.38;5113263;28;20036;-36
2021/08/03 03:02:03;;;;;;;7.60;5.65;;;;;;;13.39;83.81;101416.59;5117492;28;20023;-36
2021/08/03 03:04:39;;;;;;;9.85;5.25;;;;;;;13.45;83.63;101417.53;5116895;28;20052;-36
2021/08/03 03:07:15;;;;;;;9.40;5.65;;;;;;;13.45;84.61;101412.91;5117939;28;20040;-36
2021/08/03 03:09:41;;;;;;;6.95;5.28;;;;;;;13.35;84.40;101402.66;5117714;28;20015;-36
2021/08/03 03:12:07;;;;;;;6.80;5.20;;;;;;;13.48;84.21;101409.75;5117457;28;20157;-36
2021/08/03 03:14:39;;;;;;;7.43;5.03;;;;;;;13.51;84.52;101413.84;5117040;28;20102;-36
2021/08/03 03:17:06;;;;;;;9.77;5.68;;;;;;;13.46;84.57;101409.13;5117609;28;20023;-36
2021/08/03 03:19:35;;;;;;;7.07;4.72;;;;;;;13.40;84.31;101391.06;5117381;28;20350;-36
2021/08/03 03:22:05;;;;;;;9.95;5.97;;;;;;;13.40;84.64;101404.66;5117002;28;20031;-36
2021/08/03 03:24:31;;;;;;;7.43;5.78;;;;;;;13.41;84.55;101395.44;5117070;28;20456;-36
2021/08/03 03:26:57;;;;;;;9.77;5.65;;;;;;;13.45;84.37;101396.63;5117199;28;20096;-36
2021/08/03 03:29:25;;;;;;;7.53;5.80;;;;;;;13.34;84.57;101392.03;5114998;28;20036;-36
2021/08/03 03:31:53;;;;;;;10.00;6.10;;;;;;;13.34;84.97;101395.56;5117195;28;20364;-36
2021/08/03 03:34:19;;;;;;;10.60;5.65;;;;;;;13.30;84.96;101394.38;5116748;27;20020;-36
2021/08/03 03:36:47;;;;;;;6.63;5.75;;;;;;;13.31;84.66;101381.63;5117161;28;20100;-36
2021/08/03 03:39:14;;;;;;;9.57;5.72;;;;;;;13.20;84.94;101371.56;5116736;28;20103;-36
2021/08/03 03:41:48;;;;;;;7.32;6.07;;;;;;;13.29;85.13;101386.47;5116754;28;20102;-36
2021/08/03 03:44:14;;;;;;;9.27;5.47;;;;;;;13.24;84.78;101381.75;5117019;28;20088;-36
2021/08/03 03:47:13;;;;;;;6.97;5.05;;;;;;;13.29;84.86;101387.28;5116265;28;20027;-36
2021/08/03 03:49:45;;;;;;;9.88;6.20;;;;;;;13.12;85.29;101373.53;5114644;28;20050;-36
2021/08/03 03:52:12;;;;;;;9.80;6.25;;;;;;;13.18;85.28;101390.00;5116093;28;20024;-36
2021/08/03 03:54:40;;;;;;;8.07;5.65;;;;;;;13.19;85.18;101387.03;5114699;28;20459;-36
2021/08/03 03:57:08;;;;;;;6.53;5.70;;;;;;;13.22;85.06;101396.59;5116940;28;20028;-36
2021/08/03 03:59:37;;;;;;;10.98;5.63;;;;;;;13.10;85.35;101397.41;5116235;28;20149;-36
2021/08/03 04:02:06;;;;;;;8.95;5.88;;;;;;;13.10;85.33;101393.84;5116134;28;20367;-36
2021/08/03 04:04:34;;;;;;;6.43;5.25;;;;;;;13.07;85.60;101395.16;5116174;28;20027;-36
2021/08/03 04:07:00;;;;;;;7.05;5.20;;;;;;;13.21;86.22;101406.63;5116210;28;20031;-36
2021/08/03 04:09:25;;;;;;;7.60;5.55;;;;;;;13.08;86.11;101387.84;5116644;28;20023;-36
2021/08/03 04:11:52;;;;;;;8.10;6.00;;;;;;;13.09;85.71;101400.34;5116418;28;20028;-36
2021/08/03 04:14:23;;;;;;;11.27;5.63;;;;;;;13.08;86.07;101387.84;5116072;28;20020;-36
2021/08/03 04:16:50;;;;;;;7.38;5.22;;;;;;;13.11;86.19;101382.75;5116824;28;20023;-36
2021/08/03 04:19:15;;;;;;;6.72;5.45;;;;;;;13.14;86.45;101392.34;5115846;28;20032;-36
2021/08/03 04:21:42;;;;;;;9.40;5.57;;;;;;;13.07;86.01;101378.84;5116486;28;20046;-36
2021/08/03 04:24:08;;;;;;;11.52;6.50;;;;;;;12.99;86.44;101373.78;5115602;28;20277;-36
2021/08/03 04:26:33;;;;;;;11.50;6.82;;;;;;;13.00;87.13;101399.88;5116358;28;20038;-36
2021/08/03 04:28:58;;;;;;;9.13;6.20;;;;;;;12.96;87.04;101395.97;5116594;28;20131;-36
2021/08/03 04:31:24;;;;;;;10.68;6.70;;;;;;;12.74;88.00;101375.88;5115275;28;20050;-36
2021/08/03 04:33:50;;;;;;;10.63;6.30;;;;;;;12.83;88.55;101402.44;5115634;27;20031;-36
2021/08/03 04:36:16;;;;;;;7.20;6.13;;;;;;;12.82;88.71;101402.66;5116267;28;20024;-37
2021/08/03 04:38:41;;;;;;;7.65;5.70;;;;;;;12.84;88.61;101401.38;5115806;28;20023;-36
2021/08/03 04:41:07;;;;;;;10.53;6.77;;;;;;;12.82;88.79;101389.91;5115996;28;20431;-36
2021/08/03 04:43:32;;;;;;;8.40;7.30;;;;;;;12.76;88.64;101398.97;5116150;28;20034;-36
2021/08/03 04:45:57;;;;;;;10.83;7.37;;;;;;;12.62;88.93;101379.34;5115587;27;20245;-36
2021/08/03 04:48:23;;;;;;;8.23;7.17;;;;;;;12.51;88.88;101361.16;5115346;28;20441;-36
2021/08/03 04:50:48;;;;;;;9.23;6.73;;;;;;;12.78;88.78;101385.16;5114368;28;20379;-36
2021/08/03 04:53:13;;;;;;;9.43;6.63;;;;;;;12.82;89.06;101391.78;5113826;28;20352;-36
2021/08/03 04:55:39;;;;;;;7.20;5.47;;;;;;;12.93;88.90;101395.59;5115349;28;20027;-36
2021/08/03 04:58:04;;;;;;;8.68;7.53;;;;;;;12.95;88.93;101388.88;5115815;28;20030;-36
2021/08/03 05:00:29;;;;;;;10.50;6.80;;;;;;;12.99;88.52;101384.66;5115329;27;20417;-36
2021/08/03 05:02:55;;;;;;;12.30;7.22;;;;;;;13.01;88.21;101387.13;5115696;28;20020;-36
2021/08/03 05:05:20;;;;;;;10.73;6.93;;;;;;;13.00;88.37;101383.56;5115791;28;20042;-36
2021/08/03 05:07:59;;;;;;;9.43;8.03;;;;;;;12.99;88.62;101386.53;5114797;28;20416;-43
2021/08/03 05:10:26;;;;;;;11.88;7.85;;;;;;;12.91;88.38;101397.72;5115355;28;20069;-36
2021/08/03 05:12:51;;;;;;;9.43;7.60;;;;;;;12.88;88.21;101370.00;5115225;28;20034;-36
2021/08/03 05:15:17;;;;;;;9.73;7.60;;;;;;;13.01;88.71;101390.66;5115468;28;20028;-36
2021/08/03 05:17:42;;;;;;;11.05;7.65;;;;;;;12.90;87.93;101361.63;5114670;28;20027;-36
2021/08/03 05:20:09;;;;;;;14.10;8.13;;;;;;;13.02;88.11;101380.63;5115208;28;20054;-36
2021/08/03 05:22:34;;;;;;;8.50;7.28;;;;;;;13.13;87.89;101387.97;5114559;28;20132;-36
2021/08/03 05:25:00;;;;;;;11.88;7.38;;;;;;;13.16;87.65;101384.78;5114277;28;20455;-36
2021/08/03 05:27:26;;;;;;;10.63;8.17;;;;;;;13.12;87.03;101376.25;5115613;28;20070;-36
2021/08/03 05:29:51;;;;;;;13.45;8.05;;;;;;;13.24;87.45;101380.91;5114824;28;20020;-36
2021/08/03 05:32:17;;;;;;;18.37;9.13;;;;;;;13.19;88.09;101372.63;5115591;28;20376;-36
2021/08/03 05:34:42;;;;;;;9.45;8.23;;;;;;;13.28;88.28;101384.81;5114577;28;20281;-36
2021/08/03 05:37:08;;;;;;;10.70;8.40;;;;;;;13.21;88.48;101374.03;5115033;28;20035;-36
2021/08/03 05:39:33;;;;;;;10.50;9.40;;;;;;;13.23;88.11;101382.81;5114519;28;20352;-36
2021/08/03 05:42:00;;;;;;;12.52;11.00;;;;;;;13.06;89.13;101379.91;5114273;28;20117;-36
2021/08/03 05:44:25;;;;;;;11.23;9.85;;;;;;;13.14;88.54;101379.59;5114445;28;20023;-36
2021/08/03 05:46:51;;;;;;;14.27;9.93;;;;;;;13.14;88.90;101366.00;5114647;28;20063;-36
2021/08/03 05:49:17;;;;;;;13.27;10.48;;;;;;;13.25;88.19;101360.84;5114371;28;20095;-36
2021/08/03 05:51:42;;;;;;;12.17;10.87;;;;;;;13.37;88.14;101377.94;5114583;28;20028;-36
2021/08/03 05:54:07;;;;;;;11.87;10.63;;;;;;;13.52;88.28;101380.22;5113850;28;20281;-36
2021/08/03 05:56:33;;;;;;;11.63;10.47;;;;;;;13.54;87.93;101384.34;5114008;28;20452;-36
2021/08/03 05:58:58;;;;;;;15.17;10.83;;;;;;;13.60;87.48;101371.69;5114474;28;20027;-36
2021/08/03 06:01:23;;;;;;;14.20;11.50;;;;;;;13.54;87.93;101365.31;5114194;28;20262;-36
2021/08/03 06:03:49;;;;;;;13.13;11.57;;;;;;;13.63;87.72;101368.50;5114312;28;20034;-36
2021/08/03 06:06:16;;;;;;;14.48;12.50;;;;;;;13.73;87.69;101365.19;5114357;28;20026;-36
2021/08/03 06:08:45;;;;;;;14.90;13.27;;;;;;;13.84;87.36;101362.41;5113722;28;20139;-36
2021/08/03 06:11:16;;;;;;;16.23;13.75;;;;;;;13.93;87.47;101373.75;5114240;28;20028;-36
2021/08/03 06:13:46;;;;;;;16.20;14.60;;;;;;;14.00;86.81;101376.31;5114127;28;20042;-36
2021/08/03 06:16:16;;;;;;;15.43;13.77;;;;;;;14.03;87.33;101379.41;5113962;28;20106;-40
2021/08/03 06:18:44;;;;;;;19.42;14.60;;;;;;;13.95;86.90;101363.47;5114363;28;20026;-36
2021/08/03 06:21:09;;;;;;;17.38;14.60;;;;;;;14.05;87.04;101366.38;5114480;28;20035;-36
2021/08/03 06:23:37;;;;;;;23.10;17.15;;;;;;;14.12;87.25;101380.69;5113821;28;20019;-36
2021/08/03 06:26:03;;;;;;;19.77;15.75;;;;;;;14.10;86.90;101371.09;5113821;28;20020;-36
2021/08/03 06:28:28;;;;;;;19.23;16.65;;;;;;;14.22;87.76;101368.34;5113796;28;20023;-36
2021/08/03 06:30:53;;;;;;;19.35;17.35;;;;;;;14.18;87.57;101376.97;5114098;28;20348;-36
2021/08/03 06:33:21;;;;;;;20.13;18.05;;;;;;;14.04;87.60;101363.91;5113751;28;20043;-36
2021/08/03 06:35:48;;;;;;;22.90;19.10;;;;;;;14.02;88.08;101366.88;5113164;28;20364;-36
2021/08/03 06:38:14;;;;;;;22.83;20.52;;;;;;;13.96;88.17;101364.28;5113985;28;20114;-36
2021/08/03 06:40:46;;;;;;;23.75;21.38;;;;;;;14.01;88.60;101365.22;5113961;28;20471;-36
2021/08/03 06:43:17;;;;;;;24.83;21.75;;;;;;;13.91;89.58;101346.81;5114363;28;20058;-36
2021/08/03 06:45:47;;;;;;;27.40;20.17;;;;;;;14.13;88.07;101355.13;5113505;28;20023;-36
2021/08/03 06:48:19;;;;;;;23.00;20.55;;;;;;;14.23;87.76;101345.50;5113864;28;20361;-36
2021/08/03 06:50:55;;;;;;;24.23;21.40;;;;;;;14.43;88.28;101365.75;5113278;28;20055;-36
2021/08/03 06:53:23;;;;;;;24.48;21.80;;;;;;;14.42;87.91;101345.06;5114125;28;20016;-36
2021/08/03 06:55:50;;;;;;;28.65;22.25;;;;;;;14.40;87.54;101360.00;5113855;28;20034;-36
2021/08/03 06:58:24;;;;;;;;;;;;;;;14.57;87.42;101366.31;5113683;28;20020;-36
2021/08/03 07:00:52;;;;;;;28.17;24.90;;;;;;;14.37;87.74;101364.03;5114086;28;20286;-36
2021/08/03 07:03:23;;;;;;;27.35;24.42;;;;;;;14.31;87.70;101356.84;5113259;28;20035;-36
2021/08/03 07:05:53;;;;;;;38.25;25.10;;;;;;;14.33;88.30;101360.13;5113770;28;20083;-36
2021/08/03 07:08:19;;;;;;;26.38;23.70;;;;;;;14.17;88.42;101315.50;5113731;28;20031;-36
2021/08/03 07:10:45;;;;;;;25.27;22.65;;;;;;;14.60;88.41;101360.41;5113418;28;20027;-36
2021/08/03 07:13:11;;;;;;;;;;;;;;;14.75;87.27;101356.28;5114496;28;20152;-36
2021/08/03 07:15:37;;;;;;;27.73;24.67;;;;;;;14.72;86.39;101356.78;5113021;28;20364;-36
2021/08/03 07:18:07;;;;;;;27.40;24.70;;;;;;;14.83;86.65;101358.59;5113313;28;20027;-36
2021/08/03 07:20:32;;;;;;;27.55;24.70;;;;;;;14.87;86.92;101346.13;5113772;28;20039;-36
2021/08/03 07:23:01;;;;;;;26.65;23.95;;;;;;;15.02;85.41;101351.00;5113137;28;20016;-36
2021/08/03 07:25:26;;;;;;;27.92;25.05;;;;;;;15.18;85.58;101344.75;5112890;28;20508;-36
2021/08/03 07:27:52;;;;;;;26.42;23.73;;;;;;;15.26;83.13;101351.66;5113062;28;20099;-36
2021/08/03 07:30:17;;;;;;;26.65;23.80;;;;;;;15.37;83.74;101361.63;5113075;28;20019;-36
2021/08/03 07:32:43;;;;;;;26.17;23.40;;;;;;;15.35;83.10;101345.53;5113173;28;20024;-36
2021/08/03 07:35:09;;;;;;;25.27;22.60;;;;;;;15.32;83.30;101353.38;5113138;28;20627;-36
2021/08/03 07:37:35;;;;;;;23.58;21.15;;;;;;;15.42;82.71;101356.22;5113045;28;20054;-36
2021/08/03 07:40:00;;;;;;;23.30;20.90;;;;;;;15.35;82.84;101340.06;5113763;28;20321;-36
2021/08/03 07:42:26;;;;;;;22.97;20.53;;;;;;;15.51;83.52;101356.63;5113414;28;20027;-36
2021/08/03 07:44:51;;;;;;;23.10;19.50;;;;;;;15.52;81.88;101340.06;5113361;28;20328;-36
2021/08/03 07:47:17;;;;;;;21.98;19.70;;;;;;;15.65;82.94;101355.22;5115320;28;20489;-36
2021/08/03 07:49:43;;;;;;;21.40;19.02;;;;;;;15.68;82.43;101357.47;5116936;28;20099;-36
2021/08/03 07:52:08;;;;;;;;;;;;;;;15.89;82.66;101364.81;5116795;28;20533;-36
2021/08/03 07:54:34;;;;;;;22.38;20.13;;;;;;;15.82;82.43;101350.56;5116527;28;19911;-36
2021/08/03 07:56:59;;;;;;;23.60;21.23;;;;;;;15.85;82.05;101354.66;5116536;28;20023;-36
2021/08/03 07:59:25;;;;;;;23.47;21.23;;;;;;;15.83;80.63;101356.84;5116435;28;20415;-36
2021/08/03 08:01:50;;;;;;;;;;;;;;;16.02;81.98;101371.81;5116909;28;20115;-36
2021/08/03 08:04:15;;;;;;;21.55;19.40;;;;;;;15.94;81.21;101369.50;5116837;28;19951;-36
2021/08/03 08:06:41;;;;;;;21.67;19.42;;;;;;;15.91;81.51;101353.69;5116729;28;20114;-36
2021/08/03 08:09:07;;;;;;;23.50;19.35;;;;;;;16.09;80.65;101364.22;5116192;27;20289;-35
2021/08/03 08:11:32;;;;;;;;;;;;;;;16.28;81.79;101363.91;5116377;28;20057;-36
2021/08/03 08:13:57;;;;;;;21.35;19.23;;;;;;;16.17;80.12;101365.69;5116616;28;19915;-36
2021/08/03 08:16:23;;;;;;;21.80;19.63;;;;;;;16.28;80.65;101372.09;5116662;28;20043;-36
2021/08/03 08:18:48;;;;;;;19.52;17.60;;;;;;;16.14;77.45;101349.81;5115743;28;20356;-36
2021/08/03 08:21:13;;;;;;;19.83;17.98;;;;;;;16.39;79.18;101371.09;5116525;28;20039;-36
2021/08/03 08:23:39;;;;;;;20.17;18.38;;;;;;;16.50;79.93;101375.63;5116100;28;20103;-36
2021/08/03 08:26:04;;;;;;;21.27;19.17;;;;;;;16.60;80.52;101366.69;5116367;28;20055;-36
2021/08/03 08:28:30;;;;;;;20.27;18.08;;;;;;;16.63;79.84;101356.06;5114682;28;20694;-36
2021/08/03 08:30:55;;;;;;;22.63;20.27;;;;;;;16.59;78.74;101367.75;5116306;28;20020;-36
2021/08/03 08:33:21;;;;;;;21.52;19.27;;;;;;;16.59;80.38;101365.03;5115664;28;20460;-34
2021/08/03 08:35:46;;;;;;;;;;;;;;;16.76;80.00;101364.97;5116838;28;20055;-35
2021/08/03 08:38:12;;;;;;;19.90;18.00;;;;;;;16.71;77.34;101357.50;5115359;28;19914;-34
2021/08/03 08:40:38;;;;;;;19.60;17.65;;;;;;;16.75;78.09;101361.41;5116396;28;20024;-34
2021/08/03 08:43:04;;;;;;;19.80;17.90;;;;;;;16.79;79.36;101354.34;5115512;28;20042;-34
2021/08/03 08:45:30;;;;;;;18.63;16.80;;;;;;;16.83;77.38;101360.91;5115330;28;20028;-34
2021/08/03 08:47:56;;;;;;;17.08;15.35;;;;;;;16.82;76.41;101363.91;5115908;28;20023;-34
2021/08/03 08:50:21;;;;;;;;;;;;;;;16.93;77.91;101363.75;5115872;28;20456;-35
2021/08/03 08:52:50;;;;;;;18.60;16.73;;;;;;;16.76;76.53;101365.78;5115381;28;19907;-35
2021/08/03 08:55:16;;;;;;;18.00;16.08;;;;;;;16.79;76.91;101364.41;5116010;27;20028;-36
2021/08/03 08:57:42;;;;;;;17.13;15.48;;;;;;;16.79;76.83;101367.16;5114415;28;20423;-35
2021/08/03 09:00:09;;;;;;;17.40;15.60;;;;;;;16.81;76.89;101370.47;5115613;28;20103;-35
2021/08/03 09:02:42;;;;;;;18.40;16.60;;;;;;;16.83;77.73;101362.81;5115194;28;20429;-35
2021/08/03 09:05:09;;;;;;;19.20;17.20;;;;;;;16.79;77.25;101369.88;5115251;28;20164;-35
2021/08/03 09:07:47;;;;;;;18.45;16.58;;;;;;;16.78;76.90;101374.53;5115406;28;20028;-35
2021/08/03 09:10:31;;;;;;;18.88;16.83;;;;;;;16.66;77.24;101361.03;5113787;28;20020;-35
2021/08/03 09:13:04;;;;;;;17.33;15.55;;;;;;;16.68;77.63;101372.50;5115308;28;20451;-35
2021/08/03 09:15:31;;;;;;;19.45;15.30;;;;;;;16.67;77.65;101367.31;5114988;28;20451;-36
2021/08/03 09:18:10;;;;;;;14.90;12.98;;;;;;;16.67;77.83;101370.84;5115248;28;20064;-36
2021/08/03 09:20:36;;;;;;;13.00;11.35;;;;;;;16.69;78.45;101379.63;5115222;28;20504;-36
2021/08/03 09:23:02;;;;;;;13.15;11.15;;;;;;;16.69;75.63;101379.63;5114775;28;20019;-36
2021/08/03 09:25:27;;;;;;;12.93;11.52;;;;;;;16.78;76.89;101376.44;5114945;28;20027;-36
2021/08/03 09:27:52;;;;;;;;;;;;;;;16.88;76.53;101380.06;5115135;28;20107;-35
2021/08/03 09:30:17;;;;;;;15.77;10.73;;;;;;;16.90;74.97;101379.84;5114791;28;19919;-36
2021/08/03 09:32:44;;;;;;;11.63;9.80;;;;;;;16.87;74.15;101378.44;5114515;28;20771;-36
2021/08/03 09:35:14;;;;;;;10.70;9.70;;;;;;;16.97;76.44;101377.69;5114209;28;20095;-36
2021/08/03 09:37:41;;;;;;;12.20;9.23;;;;;;;16.99;73.27;101370.09;5114438;28;20035;-36
2021/08/03 09:40:18;;;;;;;10.30;9.07;;;;;;;17.10;72.80;101377.25;5115175;28;20151;-35
2021/08/03 09:42:44;;;;;;;9.52;8.55;;;;;;;17.13;73.01;101384.09;5114573;28;20019;-35
2021/08/03 09:45:10;;;;;;;9.57;8.57;;;;;;;17.17;71.85;101382.50;5114691;28;20404;-36
2021/08/03 09:47:37;;;;;;;10.85;9.63;;;;;;;17.21;72.85;101378.16;5114864;28;20435;-37
2021/08/03 09:50:06;;;;;;;11.73;8.55;;;;;;;17.23;74.00;101368.63;5114647;28;20145;-35
2021/08/03 09:52:34;;;;;;;7.22;5.75;;;;;;;17.25;70.59;101380.09;5113825;28;20020;-35
2021/08/03 09:55:26;;;;;;;6.72;6.03;;;;;;;17.35;71.81;101375.81;5114393;28;20050;-35
2021/08/03 09:58:04;;;;;;;9.00;7.00;;;;;;;17.51;72.85;101383.81;5031401;28;20146;-36
2021/08/03 10:00:37;;;;;;;9.48;6.97;;;;;;;17.34;70.11;101376.91;5031597;28;20025;-35
2021/08/03 10:03:04;;;;;;;9.15;5.97;;;;;;;17.38;67.51;101367.91;5031349;28;20053;-35
2021/08/03 10:05:30;;;;;;;7.97;5.45;;;;;;;17.49;68.93;101371.53;5031647;28;20350;-36
2021/08/03 10:07:57;;;;;;;6.50;5.90;;;;;;;17.39;68.97;101344.13;5031295;28;20033;-36
2021/08/03 10:10:23;;;;;;;6.13;5.05;;;;;;;17.55;67.15;101372.38;5031327;28;20025;-35
2021/08/03 10:12:49;;;;;;;7.85;5.82;;;;;;;17.55;67.90;101358.69;5031016;28;20118;-36
2021/08/03 10:15:14;;;;;;;6.40;5.60;;;;;;;17.61;67.69;101369.38;5031394;28;20033;-36
2021/08/03 10:17:40;;;;;;;;;;;;;;;17.84;69.92;101361.88;5031324;28;20078;-36
2021/08/03 10:20:08;;;;;;;7.15;6.38;;;;;;;17.68;66.52;101356.31;5031004;28;20460;-36
2021/08/03 10:22:39;;;;;;;7.43;6.30;;;;;;;17.81;68.00;101359.66;5030907;28;20490;-36
2021/08/03 10:25:11;;;;;;;8.10;7.22;;;;;;;17.74;68.41;101355.28;5031208;28;20040;-36
2021/08/03 10:27:42;;;;;;;8.05;7.20;;;;;;;17.66;70.88;101369.41;5031397;28;20084;-36
2021/08/03 10:30:29;;;;;;;7.65;6.88;;;;;;;17.79;70.50;101370.06;5030766;28;20033;-36
2021/08/03 10:33:10;;;;;;;9.20;7.05;;;;;;;17.85;68.22;101358.06;5030846;28;20037;-36
2021/08/03 10:35:39;;;;;;;9.13;7.65;;;;;;;17.95;69.66;101358.09;5104752;28;20035;-34
2021/08/03 10:38:12;;;;;;;9.57;7.47;;;;;;;17.74;70.03;101327.09;5113696;28;20023;-35
2021/08/03 10:40:43;;;;;;;11.40;8.82;;;;;;;17.98;70.59;101361.13;5114245;28;20031;-36
2021/08/03 10:43:23;;;;;;;9.32;8.10;;;;;;;18.11;69.74;101357.06;5113235;28;20544;-35
2021/08/03 10:46:09;;;;;;;10.55;8.77;;;;;;;18.18;68.64;101360.38;5114135;28;20066;-35
2021/08/03 10:48:37;;;;;;;10.32;9.35;;;;;;;18.19;67.69;101359.28;5099110;28;20038;-35
2021/08/03 10:51:15;;;;;;;12.45;9.82;;;;;;;18.19;68.07;101361.19;5113314;28;20107;-35
2021/08/03 10:54:04;;;;;;;10.50;9.30;;;;;;;18.29;68.27;101358.47;5113224;28;20104;-35
2021/08/03 10:56:52;;;;;;;11.18;9.60;;;;;;;18.28;68.89;101354.09;5113762;28;20072;-35
2021/08/03 10:59:40;;;;;;;10.50;8.60;;;;;;;18.22;67.20;101350.53;5113336;28;20035;-35
2021/08/03 11:02:34;;;;;;;11.65;9.35;;;;;;;18.19;68.83;101351.06;5112477;28;20057;-35
2021/08/03 11:05:00;;;;;;;9.85;8.50;;;;;;;18.24;68.43;101347.50;5104018;28;20093;-35
2021/08/03 11:07:31;;;;;;;;;;;;;;;18.48;68.13;101347.84;5113811;28;20024;-35
2021/08/03 11:09:57;;;;;;;9.20;8.27;;;;;;;18.60;65.60;101326.50;5112968;28;19908;-36
2021/08/03 11:12:33;;;;;;;10.77;7.97;;;;;;;19.11;65.85;101336.66;5113590;28;20081;-36
2021/08/03 11:14:59;;;;;;;10.98;9.38;;;;;;;19.27;65.78;101335.50;5113772;28;20147;-36
2021/08/03 11:17:44;;;;;;;;;;;;;;;19.60;66.53;101339.59;5113898;28;20444;-36
2021/08/03 11:20:41;;;;;;;11.40;9.43;;;;;;;19.76;65.37;101327.47;5098921;28;19912;-36
2021/08/03 11:23:08;;;;;;;13.30;10.60;;;;;;;19.82;64.46;101325.53;5117378;28;20459;-36
2021/08/03 11:25:35;;;;;;;11.00;9.90;;;;;;;19.84;63.75;101319.75;5116883;28;20030;-36
2021/08/03 11:28:13;;;;;;;13.75;10.75;;;;;;;19.99;63.22;101322.41;5117041;28;20070;-36
2021/08/03 11:30:40;;;;;;;10.63;9.52;;;;;;;20.21;60.82;101305.56;5116944;28;20035;-36